sensor_id;sensor_type;location;lat;lon;timestamp;temperature;humidity
25250;DHT22;13201;51.148;13.738;2023-01-16T00:01:53;5.40;99.90
25250;DHT22;13201;51.148;13.738;2023-01-16T00:04:20;5.40;99.90
25250;DHT22;13201;51.148;13.738;2023-01-16T00:06:46;5.50;99.90
25250;DHT22;13201;51.148;13.738;2023-01-16T00:09:12;5.40;99.90
25250;DHT22;13201;51.148;13.738;2023-01-16T00:11:38;5.50;99.90
25250;DHT22;13201;51.148;13.738;2023-01-16T00:14:03;5.50;99.90
25250;DHT22;13201;51.148;13.738;2023-01-16T00:16:29;5.40;99.90
25250;DHT22;13201;51.148;13.738;2023-01-16T00:18:55;5.50;99.90
25250;DHT22;13201;51.148;13.738;2023-01-16T00:21:22;5.50;99.90
25250;DHT22;13201;51.148;13.738;2023-01-16T00:23:52;5.40;99.90
25250;DHT22;13201;51.148;13.738;2023-01-16T00:26:18;5.40;99.90
25250;DHT22;13201;51.148;13.738;2023-01-16T00:28:44;5.40;99.90
25250;DHT22;13201;51.148;13.738;2023-01-16T00:31:10;5.30;99.90
25250;DHT22;13201;51.148;13.738;2023-01-16T00:33:37;5.30;99.90
25250;DHT22;13201;51.148;13.738;2023-01-16T00:36:03;5.40;99.90
25250;DHT22;13201;51.148;13.738;2023-01-16T00:38:29;5.30;99.90
25250;DHT22;13201;51.148;13.738;2023-01-16T00:40:55;5.30;99.90
25250;DHT22;13201;51.148;13.738;2023-01-16T00:43:21;5.30;99.90
25250;DHT22;13201;51.148;13.738;2023-01-16T00:45:47;5.30;99.90
25250;DHT22;13201;51.148;13.738;2023-01-16T00:48:12;5.30;99.90
25250;DHT22;13201;51.148;13.738;2023-01-16T00:50:39;5.30;99.90
25250;DHT22;13201;51.148;13.738;2023-01-16T00:53:04;5.30;99.90
25250;DHT22;13201;51.148;13.738;2023-01-16T00:55:33;5.20;99.90
25250;DHT22;13201;51.148;13.738;2023-01-16T00:57:59;5.30;99.90
25250;DHT22;13201;51.148;13.738;2023-01-16T01:00:24;5.20;99.90
25250;DHT22;13201;51.148;13.738;2023-01-16T01:02:51;5.20;99.90
25250;DHT22;13201;51.148;13.738;2023-01-16T01:05:17;5.20;99.90
25250;DHT22;13201;51.148;13.738;2023-01-16T01:31:07;3.90;99.90
25250;DHT22;13201;51.148;13.738;2023-01-16T01:33:33;3.80;99.90
25250;DHT22;13201;51.148;13.738;2023-01-16T01:35:59;3.80;99.90
25250;DHT22;13201;51.148;13.738;2023-01-16T01:38:25;3.90;99.90
25250;DHT22;13201;51.148;13.738;2023-01-16T01:40:51;4.00;99.90
25250;DHT22;13201;51.148;13.738;2023-01-16T01:43:17;4.00;99.90
25250;DHT22;13201;51.148;13.738;2023-01-16T01:45:48;4.10;99.90
25250;DHT22;13201;51.148;13.738;2023-01-16T01:48:27;4.20;99.90
25250;DHT22;13201;51.148;13.738;2023-01-16T01:53:32;4.30;99.90
25250;DHT22;13201;51.148;13.738;2023-01-16T01:56:05;4.40;99.90
25250;DHT22;13201;51.148;13.738;2023-01-16T01:58:32;4.30;99.90
25250;DHT22;13201;51.148;13.738;2023-01-16T02:00:59;4.30;99.90
25250;DHT22;13201;51.148;13.738;2023-01-16T02:03:46;4.30;99.90
25250;DHT22;13201;51.148;13.738;2023-01-16T02:06:20;4.50;99.90
25250;DHT22;13201;51.148;13.738;2023-01-16T02:08:48;4.60;99.90
25250;DHT22;13201;51.148;13.738;2023-01-16T02:11:42;4.60;99.90
25250;DHT22;13201;51.148;13.738;2023-01-16T02:14:12;4.50;99.90
25250;DHT22;13201;51.148;13.738;2023-01-16T02:16:38;4.50;99.90
25250;DHT22;13201;51.148;13.738;2023-01-16T02:30:30;4.40;99.90
25250;DHT22;13201;51.148;13.738;2023-01-16T02:33:05;4.50;99.90
25250;DHT22;13201;51.148;13.738;2023-01-16T02:43:53;4.50;99.90
25250;DHT22;13201;51.148;13.738;2023-01-16T02:46:33;4.60;99.90
25250;DHT22;13201;51.148;13.738;2023-01-16T02:51:51;4.50;99.90
25250;DHT22;13201;51.148;13.738;2023-01-16T02:54:46;4.60;99.90
25250;DHT22;13201;51.148;13.738;2023-01-16T02:57:19;4.60;99.90
25250;DHT22;13201;51.148;13.738;2023-01-16T02:59:45;4.30;99.90
25250;DHT22;13201;51.148;13.738;2023-01-16T03:02:13;4.20;99.90
25250;DHT22;13201;51.148;13.738;2023-01-16T03:04:45;4.20;99.90
25250;DHT22;13201;51.148;13.738;2023-01-16T03:18:48;4.20;99.90
25250;DHT22;13201;51.148;13.738;2023-01-16T03:33:02;4.10;99.90
25250;DHT22;13201;51.148;13.738;2023-01-16T03:35:51;4.20;99.90
25250;DHT22;13201;51.148;13.738;2023-01-16T03:38:19;4.30;99.90
25250;DHT22;13201;51.148;13.738;2023-01-16T03:40:47;4.20;99.90
25250;DHT22;13201;51.148;13.738;2023-01-16T03:45:49;4.20;99.90
25250;DHT22;13201;51.148;13.738;2023-01-16T03:48:34;4.20;99.90
25250;DHT22;13201;51.148;13.738;2023-01-16T03:51:05;4.10;99.90
25250;DHT22;13201;51.148;13.738;2023-01-16T03:56:47;4.10;99.90
25250;DHT22;13201;51.148;13.738;2023-01-16T03:59:15;4.00;99.90
25250;DHT22;13201;51.148;13.738;2023-01-16T04:01:49;4.20;99.90
25250;DHT22;13201;51.148;13.738;2023-01-16T04:04:40;4.10;99.90
25250;DHT22;13201;51.148;13.738;2023-01-16T04:10:12;4.00;99.90
25250;DHT22;13201;51.148;13.738;2023-01-16T04:12:47;4.10;99.90
25250;DHT22;13201;51.148;13.738;2023-01-16T04:15:15;4.10;99.90
25250;DHT22;13201;51.148;13.738;2023-01-16T04:17:41;4.00;99.90
25250;DHT22;13201;51.148;13.738;2023-01-16T04:20:08;4.00;99.90
25250;DHT22;13201;51.148;13.738;2023-01-16T04:22:34;4.00;99.90
25250;DHT22;13201;51.148;13.738;2023-01-16T04:25:03;3.90;99.90
25250;DHT22;13201;51.148;13.738;2023-01-16T04:27:31;4.00;99.90
25250;DHT22;13201;51.148;13.738;2023-01-16T04:29:56;3.90;99.90
25250;DHT22;13201;51.148;13.738;2023-01-16T04:32:22;3.90;99.90
25250;DHT22;13201;51.148;13.738;2023-01-16T04:34:48;3.80;99.90
25250;DHT22;13201;51.148;13.738;2023-01-16T04:37:15;3.90;99.90
25250;DHT22;13201;51.148;13.738;2023-01-16T04:39:41;3.80;99.90
25250;DHT22;13201;51.148;13.738;2023-01-16T04:42:08;3.80;99.90
25250;DHT22;13201;51.148;13.738;2023-01-16T04:44:33;3.80;99.90
25250;DHT22;13201;51.148;13.738;2023-01-16T04:46:59;3.80;99.90
25250;DHT22;13201;51.148;13.738;2023-01-16T04:49:25;3.80;99.90
25250;DHT22;13201;51.148;13.738;2023-01-16T04:51:51;3.80;99.90
25250;DHT22;13201;51.148;13.738;2023-01-16T04:54:18;3.80;99.90
25250;DHT22;13201;51.148;13.738;2023-01-16T04:56:45;3.80;99.90
25250;DHT22;13201;51.148;13.738;2023-01-16T04:59:11;3.80;99.90
25250;DHT22;13201;51.148;13.738;2023-01-16T05:01:38;3.80;99.90
25250;DHT22;13201;51.148;13.738;2023-01-16T05:04:05;3.80;99.90
25250;DHT22;13201;51.148;13.738;2023-01-16T05:06:31;3.80;99.90
25250;DHT22;13201;51.148;13.738;2023-01-16T05:08:57;3.70;99.90
25250;DHT22;13201;51.148;13.738;2023-01-16T05:11:22;3.70;99.90
25250;DHT22;13201;51.148;13.738;2023-01-16T05:13:48;3.70;99.90
25250;DHT22;13201;51.148;13.738;2023-01-16T05:16:14;3.60;99.90
25250;DHT22;13201;51.148;13.738;2023-01-16T05:18:39;3.70;99.90
25250;DHT22;13201;51.148;13.738;2023-01-16T05:21:05;3.70;99.90
25250;DHT22;13201;51.148;13.738;2023-01-16T05:23:31;3.70;99.90
25250;DHT22;13201;51.148;13.738;2023-01-16T05:25:59;3.60;99.90
25250;DHT22;13201;51.148;13.738;2023-01-16T05:28:25;3.60;99.90
25250;DHT22;13201;51.148;13.738;2023-01-16T05:30:51;3.50;99.90
25250;DHT22;13201;51.148;13.738;2023-01-16T05:33:16;3.60;99.90
25250;DHT22;13201;51.148;13.738;2023-01-16T05:35:42;3.60;99.90
25250;DHT22;13201;51.148;13.738;2023-01-16T05:38:08;3.60;99.90
25250;DHT22;13201;51.148;13.738;2023-01-16T05:40:34;3.70;99.90
25250;DHT22;13201;51.148;13.738;2023-01-16T05:42:59;3.70;99.90
25250;DHT22;13201;51.148;13.738;2023-01-16T05:45:25;3.70;99.90
25250;DHT22;13201;51.148;13.738;2023-01-16T05:47:50;3.70;99.90
25250;DHT22;13201;51.148;13.738;2023-01-16T05:50:16;3.60;99.90
25250;DHT22;13201;51.148;13.738;2023-01-16T05:52:42;3.60;99.90
25250;DHT22;13201;51.148;13.738;2023-01-16T05:55:08;3.60;99.90
25250;DHT22;13201;51.148;13.738;2023-01-16T05:57:34;3.60;99.90
25250;DHT22;13201;51.148;13.738;2023-01-16T05:59:59;3.60;99.90
25250;DHT22;13201;51.148;13.738;2023-01-16T06:02:25;3.60;99.90
25250;DHT22;13201;51.148;13.738;2023-01-16T06:04:51;3.60;99.90
25250;DHT22;13201;51.148;13.738;2023-01-16T06:07:17;3.60;99.90
25250;DHT22;13201;51.148;13.738;2023-01-16T06:09:42;3.60;99.90
25250;DHT22;13201;51.148;13.738;2023-01-16T06:12:15;3.60;99.90
25250;DHT22;13201;51.148;13.738;2023-01-16T06:14:41;3.60;99.90
25250;DHT22;13201;51.148;13.738;2023-01-16T06:17:07;3.50;99.90
25250;DHT22;13201;51.148;13.738;2023-01-16T06:19:32;3.50;99.90
25250;DHT22;13201;51.148;13.738;2023-01-16T06:21:58;3.50;99.90
25250;DHT22;13201;51.148;13.738;2023-01-16T06:24:24;3.60;99.90
25250;DHT22;13201;51.148;13.738;2023-01-16T06:26:49;3.50;99.90
25250;DHT22;13201;51.148;13.738;2023-01-16T06:29:15;3.50;99.90
25250;DHT22;13201;51.148;13.738;2023-01-16T06:31:41;3.50;99.90
25250;DHT22;13201;51.148;13.738;2023-01-16T06:34:06;3.50;99.90
25250;DHT22;13201;51.148;13.738;2023-01-16T06:36:32;3.50;99.90
25250;DHT22;13201;51.148;13.738;2023-01-16T06:38:58;3.50;99.90
25250;DHT22;13201;51.148;13.738;2023-01-16T06:41:23;3.50;99.90
25250;DHT22;13201;51.148;13.738;2023-01-16T06:43:49;3.60;99.90
25250;DHT22;13201;51.148;13.738;2023-01-16T06:46:15;3.60;99.90
25250;DHT22;13201;51.148;13.738;2023-01-16T06:48:40;3.60;99.90
25250;DHT22;13201;51.148;13.738;2023-01-16T06:51:09;3.60;99.90
25250;DHT22;13201;51.148;13.738;2023-01-16T06:53:36;3.70;99.90
25250;DHT22;13201;51.148;13.738;2023-01-16T06:56:02;3.80;99.90
25250;DHT22;13201;51.148;13.738;2023-01-16T06:58:28;3.70;99.90
25250;DHT22;13201;51.148;13.738;2023-01-16T07:00:53;3.70;99.90
25250;DHT22;13201;51.148;13.738;2023-01-16T07:03:20;3.70;99.90
25250;DHT22;13201;51.148;13.738;2023-01-16T07:05:46;3.80;99.90
25250;DHT22;13201;51.148;13.738;2023-01-16T07:08:12;3.80;99.90
25250;DHT22;13201;51.148;13.738;2023-01-16T07:10:38;3.80;99.90
25250;DHT22;13201;51.148;13.738;2023-01-16T07:13:04;3.80;99.90
25250;DHT22;13201;51.148;13.738;2023-01-16T07:15:30;3.80;99.90
25250;DHT22;13201;51.148;13.738;2023-01-16T07:18:15;3.80;99.90
25250;DHT22;13201;51.148;13.738;2023-01-16T07:21:05;3.90;99.90
25250;DHT22;13201;51.148;13.738;2023-01-16T07:24:17;3.90;99.90
25250;DHT22;13201;51.148;13.738;2023-01-16T07:26:45;3.90;99.90
25250;DHT22;13201;51.148;13.738;2023-01-16T07:29:13;3.90;99.90
25250;DHT22;13201;51.148;13.738;2023-01-16T07:31:39;3.90;99.90
25250;DHT22;13201;51.148;13.738;2023-01-16T07:34:05;3.90;99.90
25250;DHT22;13201;51.148;13.738;2023-01-16T07:36:31;4.00;99.90
25250;DHT22;13201;51.148;13.738;2023-01-16T07:38:57;3.90;99.90
25250;DHT22;13201;51.148;13.738;2023-01-16T07:41:22;3.90;99.90
25250;DHT22;13201;51.148;13.738;2023-01-16T07:43:48;3.90;99.90
25250;DHT22;13201;51.148;13.738;2023-01-16T07:46:14;4.00;99.90
25250;DHT22;13201;51.148;13.738;2023-01-16T07:48:40;4.00;99.90
25250;DHT22;13201;51.148;13.738;2023-01-16T07:51:05;3.90;99.90
25250;DHT22;13201;51.148;13.738;2023-01-16T07:53:31;3.90;99.90
25250;DHT22;13201;51.148;13.738;2023-01-16T07:56:00;3.90;99.90
25250;DHT22;13201;51.148;13.738;2023-01-16T07:58:26;3.90;99.90
25250;DHT22;13201;51.148;13.738;2023-01-16T08:00:53;3.90;99.90
25250;DHT22;13201;51.148;13.738;2023-01-16T08:03:19;3.90;99.90
25250;DHT22;13201;51.148;13.738;2023-01-16T08:05:45;3.90;99.90
25250;DHT22;13201;51.148;13.738;2023-01-16T08:08:12;3.90;99.90
25250;DHT22;13201;51.148;13.738;2023-01-16T08:10:38;3.90;99.90
25250;DHT22;13201;51.148;13.738;2023-01-16T08:13:03;4.00;99.90
25250;DHT22;13201;51.148;13.738;2023-01-16T08:15:29;4.00;99.90
25250;DHT22;13201;51.148;13.738;2023-01-16T08:17:55;4.10;99.90
25250;DHT22;13201;51.148;13.738;2023-01-16T08:20:21;4.10;99.90
25250;DHT22;13201;51.148;13.738;2023-01-16T08:22:49;4.20;99.90
25250;DHT22;13201;51.148;13.738;2023-01-16T08:25:20;4.20;99.90
25250;DHT22;13201;51.148;13.738;2023-01-16T08:27:46;4.30;99.90
25250;DHT22;13201;51.148;13.738;2023-01-16T08:30:13;4.30;99.90
25250;DHT22;13201;51.148;13.738;2023-01-16T08:32:39;4.40;99.90
25250;DHT22;13201;51.148;13.738;2023-01-16T08:35:06;4.50;99.90
25250;DHT22;13201;51.148;13.738;2023-01-16T08:37:32;4.50;99.90
25250;DHT22;13201;51.148;13.738;2023-01-16T08:39:58;4.50;99.90
25250;DHT22;13201;51.148;13.738;2023-01-16T08:42:24;4.60;99.90
25250;DHT22;13201;51.148;13.738;2023-01-16T08:45:12;4.60;99.90
25250;DHT22;13201;51.148;13.738;2023-01-16T08:47:57;4.70;99.90
25250;DHT22;13201;51.148;13.738;2023-01-16T08:50:43;4.80;99.90
25250;DHT22;13201;51.148;13.738;2023-01-16T08:53:27;4.80;99.90
25250;DHT22;13201;51.148;13.738;2023-01-16T08:55:53;4.80;99.90
25250;DHT22;13201;51.148;13.738;2023-01-16T08:58:19;4.90;99.90
25250;DHT22;13201;51.148;13.738;2023-01-16T09:00:49;4.90;99.90
25250;DHT22;13201;51.148;13.738;2023-01-16T09:03:15;5.00;99.90
25250;DHT22;13201;51.148;13.738;2023-01-16T09:05:44;5.00;99.90
25250;DHT22;13201;51.148;13.738;2023-01-16T09:08:10;5.00;99.90
25250;DHT22;13201;51.148;13.738;2023-01-16T09:10:36;5.20;99.90
25250;DHT22;13201;51.148;13.738;2023-01-16T09:13:02;5.10;99.90
25250;DHT22;13201;51.148;13.738;2023-01-16T09:15:47;5.20;99.90
25250;DHT22;13201;51.148;13.738;2023-01-16T09:18:13;5.30;99.90
25250;DHT22;13201;51.148;13.738;2023-01-16T09:20:39;5.30;99.90
25250;DHT22;13201;51.148;13.738;2023-01-16T09:23:05;5.30;99.90
25250;DHT22;13201;51.148;13.738;2023-01-16T09:25:32;5.40;99.90
25250;DHT22;13201;51.148;13.738;2023-01-16T09:27:58;5.50;99.90
25250;DHT22;13201;51.148;13.738;2023-01-16T09:30:25;5.50;99.90
25250;DHT22;13201;51.148;13.738;2023-01-16T09:32:51;5.60;99.90
25250;DHT22;13201;51.148;13.738;2023-01-16T09:35:17;5.60;99.90
25250;DHT22;13201;51.148;13.738;2023-01-16T09:37:43;5.60;99.90
25250;DHT22;13201;51.148;13.738;2023-01-16T09:40:18;5.70;99.90
25250;DHT22;13201;51.148;13.738;2023-01-16T09:45:50;5.60;99.90
25250;DHT22;13201;51.148;13.738;2023-01-16T09:48:38;5.80;99.90
25250;DHT22;13201;51.148;13.738;2023-01-16T09:51:07;5.90;99.90
25250;DHT22;13201;51.148;13.738;2023-01-16T09:53:43;5.80;99.90
25250;DHT22;13201;51.148;13.738;2023-01-16T09:56:45;5.90;99.90
25250;DHT22;13201;51.148;13.738;2023-01-16T09:59:43;5.90;99.90
25250;DHT22;13201;51.148;13.738;2023-01-16T10:04:36;6.00;99.90
25250;DHT22;13201;51.148;13.738;2023-01-16T10:12:34;6.20;99.90
25250;DHT22;13201;51.148;13.738;2023-01-16T10:20:44;6.30;99.90
25250;DHT22;13201;51.148;13.738;2023-01-16T10:28:54;6.40;99.90
25250;DHT22;13201;51.148;13.738;2023-01-16T10:31:30;6.50;99.90
25250;DHT22;13201;51.148;13.738;2023-01-16T10:36:37;6.70;99.90
25250;DHT22;13201;51.148;13.738;2023-01-16T10:39:04;6.70;99.90
25250;DHT22;13201;51.148;13.738;2023-01-16T10:41:35;6.70;99.90
25250;DHT22;13201;51.148;13.738;2023-01-16T10:47:21;6.80;99.90
25250;DHT22;13201;51.148;13.738;2023-01-16T10:50:07;6.90;99.90
25250;DHT22;13201;51.148;13.738;2023-01-16T10:52:34;7.00;99.90
25250;DHT22;13201;51.148;13.738;2023-01-16T10:55:00;7.10;99.90
25250;DHT22;13201;51.148;13.738;2023-01-16T10:57:27;7.00;99.90
25250;DHT22;13201;51.148;13.738;2023-01-16T10:59:56;7.30;99.90
25250;DHT22;13201;51.148;13.738;2023-01-16T11:04:55;7.40;99.90
25250;DHT22;13201;51.148;13.738;2023-01-16T11:07:22;7.40;99.90
25250;DHT22;13201;51.148;13.738;2023-01-16T11:09:48;7.60;99.90
25250;DHT22;13201;51.148;13.738;2023-01-16T11:12:29;7.50;99.90
25250;DHT22;13201;51.148;13.738;2023-01-16T11:15:21;7.60;99.90
25250;DHT22;13201;51.148;13.738;2023-01-16T11:18:34;7.60;99.90
25250;DHT22;13201;51.148;13.738;2023-01-16T11:21:25;7.60;99.90
25250;DHT22;13201;51.148;13.738;2023-01-16T11:24:42;7.70;99.90
25250;DHT22;13201;51.148;13.738;2023-01-16T11:26:48;7.70;99.90
25250;DHT22;13201;51.148;13.738;2023-01-16T11:29:17;7.90;99.90
25250;DHT22;13201;51.148;13.738;2023-01-16T11:32:09;7.90;99.90
25250;DHT22;13201;51.148;13.738;2023-01-16T11:34:36;8.00;99.90
25250;DHT22;13201;51.148;13.738;2023-01-16T11:37:05;8.10;99.90
25250;DHT22;13201;51.148;13.738;2023-01-16T11:39:33;8.20;99.90
25250;DHT22;13201;51.148;13.738;2023-01-16T11:42:04;8.30;99.90
25250;DHT22;13201;51.148;13.738;2023-01-16T11:44:50;8.30;99.90
25250;DHT22;13201;51.148;13.738;2023-01-16T11:47:40;8.40;99.90
25250;DHT22;13201;51.148;13.738;2023-01-16T11:50:39;8.60;99.90
25250;DHT22;13201;51.148;13.738;2023-01-16T11:53:05;8.60;99.90
25250;DHT22;13201;51.148;13.738;2023-01-16T11:55:39;8.60;99.90
25250;DHT22;13201;51.148;13.738;2023-01-16T12:01:14;8.60;99.90
25250;DHT22;13201;51.148;13.738;2023-01-16T12:04:06;8.70;99.90
25250;DHT22;13201;51.148;13.738;2023-01-16T12:09:40;8.80;99.90
25250;DHT22;13201;51.148;13.738;2023-01-16T12:12:42;8.90;99.90
25250;DHT22;13201;51.148;13.738;2023-01-16T12:21:35;8.80;99.90
25250;DHT22;13201;51.148;13.738;2023-01-16T12:27:00;8.90;99.90
25250;DHT22;13201;51.148;13.738;2023-01-16T12:32:39;9.10;99.90
25250;DHT22;13201;51.148;13.738;2023-01-16T12:38:08;9.20;99.90
25250;DHT22;13201;51.148;13.738;2023-01-16T12:43:15;9.30;99.90
25250;DHT22;13201;51.148;13.738;2023-01-16T12:45:50;9.20;99.90
25250;DHT22;13201;51.148;13.738;2023-01-16T13:01:46;8.50;99.90
25250;DHT22;13201;51.148;13.738;2023-01-16T13:04:17;8.50;99.90
25250;DHT22;13201;51.148;13.738;2023-01-16T13:06:50;8.60;99.90
25250;DHT22;13201;51.148;13.738;2023-01-16T13:13:00;8.30;99.90
25250;DHT22;13201;51.148;13.738;2023-01-16T13:15:50;8.30;99.90
25250;DHT22;13201;51.148;13.738;2023-01-16T13:18:20;8.20;99.90
25250;DHT22;13201;51.148;13.738;2023-01-16T13:20:52;8.20;99.90
25250;DHT22;13201;51.148;13.738;2023-01-16T13:23:20;8.20;99.90
25250;DHT22;13201;51.148;13.738;2023-01-16T13:25:54;8.20;99.90
25250;DHT22;13201;51.148;13.738;2023-01-16T13:31:00;8.20;99.90
25250;DHT22;13201;51.148;13.738;2023-01-16T13:33:35;8.10;99.90
25250;DHT22;13201;51.148;13.738;2023-01-16T13:41:24;8.00;99.90
25250;DHT22;13201;51.148;13.738;2023-01-16T13:44:01;8.00;99.90
25250;DHT22;13201;51.148;13.738;2023-01-16T13:46:48;7.80;99.90
25250;DHT22;13201;51.148;13.738;2023-01-16T13:49:20;7.80;99.90
25250;DHT22;13201;51.148;13.738;2023-01-16T13:51:48;7.70;99.90
25250;DHT22;13201;51.148;13.738;2023-01-16T13:54:21;7.70;99.90
25250;DHT22;13201;51.148;13.738;2023-01-16T13:56:57;7.50;99.90
25250;DHT22;13201;51.148;13.738;2023-01-16T13:59:53;7.50;99.90
25250;DHT22;13201;51.148;13.738;2023-01-16T14:02:59;7.50;99.90
25250;DHT22;13201;51.148;13.738;2023-01-16T14:13:42;7.30;99.90
25250;DHT22;13201;51.148;13.738;2023-01-16T14:21:26;7.20;99.90
25250;DHT22;13201;51.148;13.738;2023-01-16T14:23:58;7.10;99.90
25250;DHT22;13201;51.148;13.738;2023-01-16T14:26:38;7.20;99.90
25250;DHT22;13201;51.148;13.738;2023-01-16T14:29:34;7.20;99.90
25250;DHT22;13201;51.148;13.738;2023-01-16T14:32:24;7.20;99.90
25250;DHT22;13201;51.148;13.738;2023-01-16T14:37:30;7.10;99.90
25250;DHT22;13201;51.148;13.738;2023-01-16T14:53:59;6.90;99.90
25250;DHT22;13201;51.148;13.738;2023-01-16T14:56:48;6.80;99.90
25250;DHT22;13201;51.148;13.738;2023-01-16T14:59:27;6.80;99.90
25250;DHT22;13201;51.148;13.738;2023-01-16T15:02:09;6.70;99.90
25250;DHT22;13201;51.148;13.738;2023-01-16T15:10:11;6.60;99.90
25250;DHT22;13201;51.148;13.738;2023-01-16T15:12:41;6.60;99.90
25250;DHT22;13201;51.148;13.738;2023-01-16T15:15:25;6.60;99.90
25250;DHT22;13201;51.148;13.738;2023-01-16T15:17:55;6.70;99.90
25250;DHT22;13201;51.148;13.738;2023-01-16T15:20:42;6.60;99.90
25250;DHT22;13201;51.148;13.738;2023-01-16T15:23:28;6.40;99.90
25250;DHT22;13201;51.148;13.738;2023-01-16T15:31:02;6.40;99.90
25250;DHT22;13201;51.148;13.738;2023-01-16T15:33:32;6.40;99.90
25250;DHT22;13201;51.148;13.738;2023-01-16T15:41:53;6.40;99.90
25250;DHT22;13201;51.148;13.738;2023-01-16T15:44:40;6.40;99.90
25250;DHT22;13201;51.148;13.738;2023-01-16T15:53:01;6.30;99.90
25250;DHT22;13201;51.148;13.738;2023-01-16T15:55:37;6.30;99.90
25250;DHT22;13201;51.148;13.738;2023-01-16T15:58:04;6.40;99.90
25250;DHT22;13201;51.148;13.738;2023-01-16T16:00:37;6.30;99.90
25250;DHT22;13201;51.148;13.738;2023-01-16T16:03:16;6.30;99.90
25250;DHT22;13201;51.148;13.738;2023-01-16T16:05:59;6.30;99.90
25250;DHT22;13201;51.148;13.738;2023-01-16T16:08:31;6.20;99.90
25250;DHT22;13201;51.148;13.738;2023-01-16T16:11:00;6.20;99.90
25250;DHT22;13201;51.148;13.738;2023-01-16T16:13:45;6.30;99.90
25250;DHT22;13201;51.148;13.738;2023-01-16T16:16:21;6.20;99.90
25250;DHT22;13201;51.148;13.738;2023-01-16T16:19:06;6.20;99.90
25250;DHT22;13201;51.148;13.738;2023-01-16T16:21:45;6.20;99.90
25250;DHT22;13201;51.148;13.738;2023-01-16T16:24:36;6.20;99.90
25250;DHT22;13201;51.148;13.738;2023-01-16T16:27:06;6.10;99.90
25250;DHT22;13201;51.148;13.738;2023-01-16T16:29:33;6.10;99.90
25250;DHT22;13201;51.148;13.738;2023-01-16T16:32:04;6.20;99.90
25250;DHT22;13201;51.148;13.738;2023-01-16T16:34:31;6.10;99.90
25250;DHT22;13201;51.148;13.738;2023-01-16T16:37:00;6.10;99.90
25250;DHT22;13201;51.148;13.738;2023-01-16T16:47:40;6.10;99.90
25250;DHT22;13201;51.148;13.738;2023-01-16T16:53:10;6.10;99.90
25250;DHT22;13201;51.148;13.738;2023-01-16T16:55:38;6.10;99.90
25250;DHT22;13201;51.148;13.738;2023-01-16T16:58:13;6.20;99.90
25250;DHT22;13201;51.148;13.738;2023-01-16T17:00:39;6.20;99.90
25250;DHT22;13201;51.148;13.738;2023-01-16T17:03:18;6.10;99.90
25250;DHT22;13201;51.148;13.738;2023-01-16T17:05:46;6.20;99.90
25250;DHT22;13201;51.148;13.738;2023-01-16T17:08:22;6.10;99.90
25250;DHT22;13201;51.148;13.738;2023-01-16T17:10:50;6.10;99.90
25250;DHT22;13201;51.148;13.738;2023-01-16T17:13:18;6.10;99.90
25250;DHT22;13201;51.148;13.738;2023-01-16T17:15:44;6.20;99.90
25250;DHT22;13201;51.148;13.738;2023-01-16T17:18:12;6.20;99.90
25250;DHT22;13201;51.148;13.738;2023-01-16T17:20:37;6.20;99.90
25250;DHT22;13201;51.148;13.738;2023-01-16T17:23:15;6.20;99.90
25250;DHT22;13201;51.148;13.738;2023-01-16T17:25:42;6.20;99.90
25250;DHT22;13201;51.148;13.738;2023-01-16T17:28:09;6.20;99.90
25250;DHT22;13201;51.148;13.738;2023-01-16T17:30:35;6.10;99.90
25250;DHT22;13201;51.148;13.738;2023-01-16T17:33:10;6.20;99.90
25250;DHT22;13201;51.148;13.738;2023-01-16T17:35:38;6.10;99.90
25250;DHT22;13201;51.148;13.738;2023-01-16T17:38:11;6.20;99.90
25250;DHT22;13201;51.148;13.738;2023-01-16T17:40:38;6.10;99.90
25250;DHT22;13201;51.148;13.738;2023-01-16T17:43:04;6.20;99.90
25250;DHT22;13201;51.148;13.738;2023-01-16T17:45:52;6.20;99.90
25250;DHT22;13201;51.148;13.738;2023-01-16T17:48:26;6.10;99.90
25250;DHT22;13201;51.148;13.738;2023-01-16T17:50:52;6.20;99.90
25250;DHT22;13201;51.148;13.738;2023-01-16T17:53:20;6.10;99.90
25250;DHT22;13201;51.148;13.738;2023-01-16T17:55:50;6.10;99.90
25250;DHT22;13201;51.148;13.738;2023-01-16T17:58:22;6.20;99.90
25250;DHT22;13201;51.148;13.738;2023-01-16T18:01:18;6.20;99.90
25250;DHT22;13201;51.148;13.738;2023-01-16T18:03:46;6.10;99.90
25250;DHT22;13201;51.148;13.738;2023-01-16T18:06:17;6.20;99.90
25250;DHT22;13201;51.148;13.738;2023-01-16T18:08:47;6.20;99.90
25250;DHT22;13201;51.148;13.738;2023-01-16T18:11:12;6.20;99.90
25250;DHT22;13201;51.148;13.738;2023-01-16T18:13:56;6.20;99.90
25250;DHT22;13201;51.148;13.738;2023-01-16T18:16:40;6.20;99.90
25250;DHT22;13201;51.148;13.738;2023-01-16T18:19:25;6.30;99.90
25250;DHT22;13201;51.148;13.738;2023-01-16T18:21:50;6.20;99.90
25250;DHT22;13201;51.148;13.738;2023-01-16T18:24:26;6.20;99.90
25250;DHT22;13201;51.148;13.738;2023-01-16T18:26:52;6.20;99.90
25250;DHT22;13201;51.148;13.738;2023-01-16T18:29:18;6.10;99.90
25250;DHT22;13201;51.148;13.738;2023-01-16T18:31:44;6.10;99.90
25250;DHT22;13201;51.148;13.738;2023-01-16T18:34:29;6.10;99.90
25250;DHT22;13201;51.148;13.738;2023-01-16T18:36:55;6.00;99.90
25250;DHT22;13201;51.148;13.738;2023-01-16T18:39:21;6.10;99.90
25250;DHT22;13201;51.148;13.738;2023-01-16T18:42:06;6.10;99.90
25250;DHT22;13201;51.148;13.738;2023-01-16T18:44:50;6.10;99.90
25250;DHT22;13201;51.148;13.738;2023-01-16T18:47:35;6.10;99.90
25250;DHT22;13201;51.148;13.738;2023-01-16T18:50:19;6.00;99.90
25250;DHT22;13201;51.148;13.738;2023-01-16T18:53:03;6.00;99.90
25250;DHT22;13201;51.148;13.738;2023-01-16T18:55:47;6.00;99.90
25250;DHT22;13201;51.148;13.738;2023-01-16T18:58:32;6.00;99.90
25250;DHT22;13201;51.148;13.738;2023-01-16T19:01:16;6.00;99.90
25250;DHT22;13201;51.148;13.738;2023-01-16T19:04:00;6.00;99.90
25250;DHT22;13201;51.148;13.738;2023-01-16T19:06:26;5.90;99.90
25250;DHT22;13201;51.148;13.738;2023-01-16T19:08:52;5.90;99.90
25250;DHT22;13201;51.148;13.738;2023-01-16T19:11:19;5.90;99.90
25250;DHT22;13201;51.148;13.738;2023-01-16T19:13:45;5.90;99.90
25250;DHT22;13201;51.148;13.738;2023-01-16T19:16:12;5.80;99.90
25250;DHT22;13201;51.148;13.738;2023-01-16T19:18:57;5.80;99.90
25250;DHT22;13201;51.148;13.738;2023-01-16T19:21:23;5.80;99.90
25250;DHT22;13201;51.148;13.738;2023-01-16T19:23:49;5.80;99.90
25250;DHT22;13201;51.148;13.738;2023-01-16T19:26:15;5.70;99.90
25250;DHT22;13201;51.148;13.738;2023-01-16T19:28:41;5.80;99.90
25250;DHT22;13201;51.148;13.738;2023-01-16T19:31:07;5.80;99.90
25250;DHT22;13201;51.148;13.738;2023-01-16T19:33:33;5.80;99.90
25250;DHT22;13201;51.148;13.738;2023-01-16T19:35:59;5.80;99.90
25250;DHT22;13201;51.148;13.738;2023-01-16T19:38:25;5.90;99.90
25250;DHT22;13201;51.148;13.738;2023-01-16T19:40:51;5.80;99.90